createdAt,value
2023-02-03T00:00:54.502Z,4.84
2023-02-03T00:03:34.164Z,4.85
2023-02-03T00:06:11.831Z,4.84
2023-02-03T00:08:40.353Z,4.85
2023-02-03T00:11:09.018Z,4.86
2023-02-03T00:13:37.700Z,4.87
2023-02-03T00:16:07.623Z,4.88
2023-02-03T00:18:37.347Z,4.88
2023-02-03T00:21:06.125Z,4.91
2023-02-03T00:23:35.159Z,4.92
2023-02-03T00:26:09.417Z,4.95
2023-02-03T00:28:38.176Z,4.96
2023-02-03T00:31:06.981Z,4.94
2023-02-03T00:33:35.381Z,4.97
2023-02-03T00:36:08.042Z,4.98
2023-02-03T00:38:36.347Z,4.99
2023-02-03T00:41:04.715Z,5.00
2023-02-03T00:43:33.085Z,5.01
2023-02-03T00:46:01.478Z,5.04
2023-02-03T00:48:30.519Z,5.04
2023-02-03T00:50:58.880Z,5.05
2023-02-03T00:53:28.502Z,5.06
2023-02-03T00:55:56.974Z,5.08
2023-02-03T00:58:25.324Z,5.09
2023-02-03T01:00:55.822Z,5.09
2023-02-03T01:03:24.307Z,5.09
2023-02-03T01:05:52.662Z,5.10
2023-02-03T01:08:21.021Z,5.09
2023-02-03T01:10:50.787Z,5.09
2023-02-03T01:13:19.359Z,5.10
2023-02-03T01:15:48.866Z,5.10
2023-02-03T01:18:17.153Z,5.11
2023-02-03T01:20:48.168Z,5.10
2023-02-03T01:23:16.490Z,5.12
2023-02-03T01:25:44.884Z,5.11
2023-02-03T01:28:14.819Z,5.14
2023-02-03T01:30:43.316Z,5.15
2023-02-03T01:33:11.719Z,5.15
2023-02-03T01:35:40.057Z,5.18
2023-02-03T01:38:08.741Z,5.20
2023-02-03T01:40:46.326Z,5.24
2023-02-03T01:46:19.604Z,5.26
2023-02-03T01:48:48.027Z,5.27
2023-02-03T01:51:16.569Z,5.30
2023-02-03T01:53:45.626Z,5.32
2023-02-03T01:56:14.003Z,5.31
2023-02-03T01:58:43.582Z,5.33
2023-02-03T02:01:13.368Z,5.35
2023-02-03T02:03:46.069Z,5.36
2023-02-03T02:06:15.674Z,5.35
2023-02-03T02:08:49.352Z,5.37
2023-02-03T02:11:18.552Z,5.39
2023-02-03T02:13:48.633Z,5.40
2023-02-03T02:16:26.850Z,5.42
2023-02-03T02:19:11.000Z,5.44
2023-02-03T02:22:07.453Z,5.46
2023-02-03T02:25:00.451Z,5.48
2023-02-03T02:27:57.796Z,5.50
2023-02-03T02:30:56.183Z,5.52
2023-02-03T02:33:37.991Z,5.54
2023-02-03T02:36:14.713Z,5.55
2023-02-03T02:38:51.641Z,5.56
2023-02-03T02:41:25.899Z,5.57
2023-02-03T02:44:02.440Z,5.60
2023-02-03T02:46:36.182Z,5.61
2023-02-03T02:49:12.100Z,5.63
2023-02-03T02:51:43.852Z,5.65
2023-02-03T02:54:17.374Z,5.69
2023-02-03T02:56:49.608Z,5.68
2023-02-03T02:59:18.068Z,5.69
2023-02-03T03:01:46.542Z,5.70
2023-02-03T03:04:23.224Z,5.71
2023-02-03T03:06:57.141Z,5.72
2023-02-03T03:09:29.712Z,5.69
2023-02-03T03:12:07.752Z,5.71
2023-02-03T03:14:42.429Z,5.72
2023-02-03T03:17:14.706Z,5.71
2023-02-03T03:19:51.494Z,5.71
2023-02-03T03:22:25.731Z,5.65
2023-02-03T03:24:59.431Z,5.63
2023-02-03T03:27:33.455Z,5.61
2023-02-03T03:30:06.313Z,5.56
2023-02-03T03:32:35.000Z,5.55
2023-02-03T03:35:07.510Z,5.55
2023-02-03T03:37:39.280Z,5.56
2023-02-03T03:40:11.835Z,5.58
2023-02-03T03:42:55.924Z,5.60
2023-02-03T03:45:28.236Z,5.60
2023-02-03T03:48:12.630Z,5.61
2023-02-03T03:50:47.016Z,5.64
2023-02-03T03:53:18.285Z,5.67
2023-02-03T03:55:49.873Z,5.68
2023-02-03T03:58:23.248Z,5.67
2023-02-03T04:00:52.448Z,5.67
2023-02-03T04:03:25.024Z,5.68
2023-02-03T04:05:54.897Z,5.69
2023-02-03T04:08:26.104Z,5.68
2023-02-03T04:10:54.439Z,5.67
2023-02-03T04:13:22.841Z,5.60
2023-02-03T04:15:51.382Z,5.54
2023-02-03T04:18:20.544Z,5.48
2023-02-03T04:20:48.896Z,5.41
2023-02-03T04:23:18.625Z,5.38
2023-02-03T04:25:46.948Z,5.37
2023-02-03T04:28:15.376Z,5.37
2023-02-03T04:30:43.902Z,5.36
2023-02-03T04:33:12.259Z,5.36
2023-02-03T04:35:40.608Z,5.37
2023-02-03T04:38:08.956Z,5.39
2023-02-03T04:40:38.671Z,5.39
2023-02-03T04:43:08.734Z,5.41
2023-02-03T04:45:37.157Z,5.41
2023-02-03T04:48:05.985Z,5.43
2023-02-03T04:50:34.581Z,5.45
2023-02-03T04:53:02.981Z,5.47
2023-02-03T04:55:31.331Z,5.47
2023-02-03T04:58:01.788Z,5.48
2023-02-03T05:00:30.848Z,5.50
2023-02-03T05:02:59.343Z,5.51
2023-02-03T05:05:27.773Z,5.49
2023-02-03T05:07:58.074Z,5.54
2023-02-03T05:10:26.935Z,5.56
2023-02-03T05:12:55.522Z,5.59
2023-02-03T05:15:25.221Z,5.60
2023-02-03T05:17:56.843Z,5.64
2023-02-03T05:20:25.672Z,5.68
2023-02-03T05:22:54.282Z,5.69
2023-02-03T05:25:22.620Z,5.68
2023-02-03T05:27:56.356Z,5.67
2023-02-03T05:30:26.849Z,5.66
2023-02-03T05:32:55.387Z,5.66
2023-02-03T05:35:24.393Z,5.67
2023-02-03T05:37:52.689Z,5.68
2023-02-03T05:40:39.021Z,5.69
2023-02-03T05:43:07.818Z,5.69
2023-02-03T05:45:37.580Z,5.70
2023-02-03T05:48:07.406Z,5.70
2023-02-03T05:50:38.610Z,5.70
2023-02-03T05:53:08.469Z,5.70
2023-02-03T05:55:37.905Z,5.71
2023-02-03T05:58:06.301Z,5.71
2023-02-03T06:00:34.770Z,5.71
2023-02-03T06:03:05.227Z,5.72
2023-02-03T06:05:35.713Z,5.71
2023-02-03T06:08:04.337Z,5.71
2023-02-03T06:10:32.687Z,5.70
2023-02-03T06:13:01.146Z,5.71
2023-02-03T06:15:29.490Z,5.73
2023-02-03T06:17:57.899Z,5.73
2023-02-03T06:20:50.827Z,5.73
2023-02-03T06:23:19.997Z,5.73
2023-02-03T06:25:50.029Z,5.73
2023-02-03T06:28:18.439Z,5.73
2023-02-03T06:30:47.010Z,5.73
2023-02-03T06:33:15.354Z,5.78
2023-02-03T06:35:43.768Z,5.77
2023-02-03T06:38:13.502Z,5.78
2023-02-03T06:40:41.916Z,5.79
2023-02-03T06:43:10.239Z,5.80
2023-02-03T06:45:38.616Z,5.80
2023-02-03T06:48:07.663Z,5.78
2023-02-03T06:50:36.033Z,5.79
2023-02-03T06:53:04.540Z,5.81
2023-02-03T06:55:34.449Z,5.80
2023-02-03T06:58:02.819Z,5.79
2023-02-03T07:00:31.518Z,5.80
2023-02-03T07:03:01.448Z,5.79
2023-02-03T07:05:29.879Z,5.80
2023-02-03T07:07:59.094Z,5.81
2023-02-03T07:10:27.717Z,5.81
2023-02-03T07:13:03.909Z,5.80
2023-02-03T07:15:32.411Z,5.79
2023-02-03T07:18:00.746Z,5.79
2023-02-03T07:20:30.153Z,5.79
2023-02-03T07:22:59.640Z,5.80
2023-02-03T07:25:28.353Z,5.80
2023-02-03T07:27:58.378Z,5.79
2023-02-03T07:30:27.127Z,5.80
2023-02-03T07:32:55.716Z,5.81
2023-02-03T07:35:24.063Z,5.82
2023-02-03T07:37:52.496Z,5.82
2023-02-03T07:40:21.381Z,5.84
2023-02-03T07:43:00.147Z,5.87
2023-02-03T07:45:28.695Z,5.90
2023-02-03T07:47:57.077Z,5.93
2023-02-03T07:50:25.572Z,5.96
2023-02-03T07:52:55.557Z,5.97
2023-02-03T07:55:24.045Z,5.98
2023-02-03T07:57:54.375Z,5.99
2023-02-03T08:00:25.765Z,6.02
2023-02-03T08:02:54.758Z,6.03
2023-02-03T08:05:23.121Z,6.04
2023-02-03T08:07:51.523Z,6.05
2023-02-03T08:10:20.632Z,6.06
2023-02-03T08:12:49.035Z,6.08
2023-02-03T08:15:17.470Z,6.09
2023-02-03T08:17:47.240Z,6.11
2023-02-03T08:20:16.663Z,6.14
2023-02-03T08:22:45.016Z,6.15
2023-02-03T08:25:13.517Z,6.16
2023-02-03T08:27:46.017Z,6.17
2023-02-03T08:30:15.461Z,6.19
2023-02-03T08:32:43.877Z,6.22
2023-02-03T08:35:13.794Z,6.27
2023-02-03T08:37:42.439Z,6.29
2023-02-03T08:40:12.798Z,6.29
2023-02-03T08:42:41.158Z,6.31
2023-02-03T08:45:10.365Z,6.35
2023-02-03T08:47:39.380Z,6.36
2023-02-03T08:50:09.806Z,6.40
2023-02-03T08:52:40.619Z,6.43
2023-02-03T08:55:09.579Z,6.46
2023-02-03T08:57:39.988Z,6.49
2023-02-03T09:00:09.923Z,6.53
2023-02-03T09:02:38.348Z,6.55
2023-02-03T09:05:07.501Z,6.57
2023-02-03T09:07:35.922Z,6.59
2023-02-03T09:10:06.309Z,6.62
2023-02-03T09:12:34.909Z,6.66
2023-02-03T09:15:03.238Z,6.72
2023-02-03T09:17:31.559Z,6.74
2023-02-03T09:20:00.874Z,6.77
2023-02-03T09:22:29.198Z,6.79
2023-02-03T09:24:57.729Z,6.82
2023-02-03T09:27:29.169Z,6.85
2023-02-03T09:29:58.522Z,6.87
2023-02-03T09:32:28.525Z,6.89
2023-02-03T09:34:58.687Z,6.90
2023-02-03T09:37:30.435Z,6.94
2023-02-03T09:39:59.456Z,6.97
2023-02-03T09:42:52.977Z,6.98
2023-02-03T09:45:27.234Z,7.00
2023-02-03T09:48:01.773Z,7.02
2023-02-03T09:50:33.195Z,7.03
2023-02-03T09:53:08.036Z,7.06
2023-02-03T09:55:40.871Z,7.10
2023-02-03T09:58:13.545Z,7.14
2023-02-03T10:00:44.704Z,7.18
2023-02-03T10:03:24.799Z,7.22
2023-02-03T10:06:13.786Z,7.26
2023-02-03T10:08:59.766Z,7.28
2023-02-03T10:11:46.639Z,7.28
2023-02-03T10:14:33.966Z,7.30
2023-02-03T10:17:13.285Z,7.33
2023-02-03T10:19:47.636Z,7.34
2023-02-03T10:22:19.889Z,7.37
2023-02-03T10:24:51.820Z,7.39
2023-02-03T10:27:23.473Z,7.41
2023-02-03T10:29:59.236Z,7.44
2023-02-03T10:32:28.669Z,7.48
2023-02-03T10:34:59.182Z,7.51
2023-02-03T10:37:32.257Z,7.52
2023-02-03T10:40:02.901Z,7.54
2023-02-03T10:42:53.275Z,7.57
2023-02-03T10:45:23.296Z,7.56
2023-02-03T10:47:54.679Z,7.56
2023-02-03T10:50:31.566Z,7.58
2023-02-03T10:53:23.301Z,7.60
2023-02-03T10:56:01.938Z,7.60
2023-02-03T10:58:33.410Z,7.62
2023-02-03T11:01:11.755Z,7.64
2023-02-03T11:03:43.419Z,7.67
2023-02-03T11:06:13.825Z,7.68
2023-02-03T11:08:44.164Z,7.69
2023-02-03T11:11:16.907Z,7.69
2023-02-03T11:13:45.594Z,7.72
2023-02-03T11:16:18.336Z,7.75
2023-02-03T11:18:56.403Z,7.78
2023-02-03T11:21:31.503Z,7.83
2023-02-03T11:24:05.975Z,7.86
2023-02-03T11:26:43.906Z,7.86
2023-02-03T11:29:22.775Z,7.87
2023-02-03T11:31:56.327Z,7.88
2023-02-03T11:34:28.213Z,7.86
2023-02-03T11:36:57.095Z,7.87
2023-02-03T11:39:28.542Z,7.86
2023-02-03T11:41:57.772Z,7.87
2023-02-03T11:44:29.599Z,7.86
2023-02-03T11:47:03.375Z,7.85
2023-02-03T11:50:05.390Z,7.85
2023-02-03T11:53:10.982Z,7.82
2023-02-03T11:55:53.342Z,7.79
2023-02-03T11:58:44.501Z,7.76
2023-02-03T12:01:21.289Z,7.74
2023-02-03T12:04:13.265Z,7.72
2023-02-03T12:06:56.026Z,7.69
2023-02-03T12:09:32.790Z,7.68
2023-02-03T12:12:26.200Z,7.69
2023-02-03T12:15:08.003Z,7.71
2023-02-03T12:17:51.887Z,7.74
2023-02-03T12:20:40.512Z,7.76
2023-02-03T12:23:20.446Z,7.77
2023-02-03T12:26:01.872Z,7.76
2023-02-03T12:28:43.217Z,7.73
2023-02-03T12:31:17.576Z,7.72
2023-02-03T12:33:51.872Z,7.69
2023-02-03T12:36:26.007Z,7.67
2023-02-03T12:38:58.161Z,7.66
2023-02-03T12:41:30.604Z,7.65
2023-02-03T12:44:05.223Z,7.66
2023-02-03T12:46:41.731Z,7.63
2023-02-03T12:49:16.673Z,7.58
2023-02-03T12:51:50.995Z,7.57
2023-02-03T12:54:34.339Z,7.55
2023-02-03T12:57:17.169Z,7.55
2023-02-03T12:59:58.883Z,7.54
2023-02-03T13:02:31.484Z,7.52
2023-02-03T13:05:06.667Z,7.47
2023-02-03T13:07:42.609Z,7.46
2023-02-03T13:10:20.688Z,7.45
2023-02-03T13:12:52.677Z,7.44
2023-02-03T13:15:27.561Z,7.40
2023-02-03T13:18:04.975Z,7.39
2023-02-03T13:20:37.202Z,7.37
2023-02-03T13:23:10.569Z,7.39
2023-02-03T13:25:53.565Z,7.37
2023-02-03T13:28:35.751Z,7.36
2023-02-03T13:31:31.810Z,7.34
2023-02-03T13:34:41.515Z,7.34
2023-02-03T13:37:29.138Z,7.34
2023-02-03T13:40:15.468Z,7.35
2023-02-03T13:42:49.475Z,7.35
2023-02-03T13:45:26.435Z,7.34
2023-02-03T13:47:58.338Z,7.33
2023-02-03T13:50:29.872Z,7.32
2023-02-03T13:53:02.196Z,7.33
2023-02-03T13:55:36.992Z,7.36
2023-02-03T13:58:08.378Z,7.36
2023-02-03T14:01:07.591Z,7.33
2023-02-03T14:03:45.663Z,7.29
2023-02-03T14:07:00.012Z,7.30
2023-02-03T14:09:39.721Z,7.30
2023-02-03T14:12:21.238Z,7.30
2023-02-03T14:15:22.297Z,7.33
2023-02-03T14:18:00.242Z,7.33
2023-02-03T14:20:55.270Z,7.35
2023-02-03T14:23:44.630Z,7.34
2023-02-03T14:26:24.192Z,7.33
2023-02-03T14:28:54.235Z,7.34
2023-02-03T14:31:23.917Z,7.34
2023-02-03T14:33:57.385Z,7.35
2023-02-03T14:36:36.030Z,7.36
2023-02-03T14:39:22.578Z,7.34
2023-02-03T14:41:57.493Z,7.36
2023-02-03T14:44:37.340Z,7.37
2023-02-03T14:47:16.782Z,7.37
2023-02-03T14:50:02.838Z,7.38
2023-02-03T14:52:54.938Z,7.38
2023-02-03T14:55:49.426Z,7.38
2023-02-03T14:58:27.437Z,7.38
2023-02-03T15:00:57.892Z,7.38
2023-02-03T15:03:30.309Z,7.38
2023-02-03T15:06:03.231Z,7.38
2023-02-03T15:08:44.158Z,7.38
2023-02-03T15:11:31.291Z,7.37
2023-02-03T15:14:25.037Z,7.37
2023-02-03T15:17:00.193Z,7.35
2023-02-03T15:19:30.763Z,7.35
2023-02-03T15:21:59.278Z,7.35
2023-02-03T15:24:27.627Z,7.35
2023-02-03T15:26:57.406Z,7.34
2023-02-03T15:29:32.153Z,7.34
2023-02-03T15:32:13.841Z,7.36
2023-02-03T15:34:45.767Z,7.34
2023-02-03T15:37:20.157Z,7.36
2023-02-03T15:39:56.943Z,7.36
2023-02-03T15:42:31.135Z,7.37
2023-02-03T15:45:04.878Z,7.37
2023-02-03T15:47:36.978Z,7.37
2023-02-03T15:50:23.394Z,7.37
2023-02-03T15:52:53.859Z,7.38
2023-02-03T15:55:33.307Z,7.38
2023-02-03T15:58:03.943Z,7.39
2023-02-03T16:00:36.475Z,7.41
2023-02-03T16:03:16.445Z,7.42
2023-02-03T16:05:48.720Z,7.42
2023-02-03T16:08:37.496Z,7.43
2023-02-03T16:11:25.347Z,7.43
2023-02-03T16:13:55.450Z,7.44
2023-02-03T16:16:26.510Z,7.45
2023-02-03T16:18:58.843Z,7.45
2023-02-03T16:21:31.008Z,7.46
2023-02-03T16:24:00.157Z,7.49
2023-02-03T16:26:30.220Z,7.51
2023-02-03T16:29:33.161Z,7.52
2023-02-03T16:32:19.570Z,7.54
2023-02-03T16:35:06.791Z,7.54
2023-02-03T16:38:01.942Z,7.54
2023-02-03T16:40:47.987Z,7.55
2023-02-03T16:43:35.137Z,7.59
2023-02-03T16:46:21.058Z,7.60
2023-02-03T16:49:06.986Z,7.60
2023-02-03T16:51:40.930Z,7.63
2023-02-03T16:54:14.065Z,7.64
2023-02-03T16:56:42.492Z,7.67
2023-02-03T16:59:10.978Z,7.69
2023-02-03T17:01:39.422Z,7.73
2023-02-03T17:04:08.226Z,7.77
2023-02-03T17:06:40.101Z,7.80
2023-02-03T17:09:08.564Z,7.81
2023-02-03T17:11:36.891Z,7.79
2023-02-03T17:14:05.321Z,7.82
2023-02-03T17:16:33.824Z,7.80
2023-02-03T17:19:02.217Z,7.80
2023-02-03T17:21:31.676Z,7.79
2023-02-03T17:24:09.880Z,7.80
2023-02-03T17:26:38.254Z,7.79
2023-02-03T17:29:06.824Z,7.80
2023-02-03T17:31:35.178Z,7.78
2023-02-03T17:34:03.508Z,7.77
2023-02-03T17:36:31.858Z,7.76
2023-02-03T17:55:34.165Z,7.56
2023-02-03T17:58:03.984Z,7.47
2023-02-03T18:00:32.688Z,7.40
2023-02-03T18:03:01.167Z,7.29
2023-02-03T18:05:29.913Z,7.20
2023-02-03T18:08:03.109Z,7.13
2023-02-03T18:10:37.591Z,7.05
2023-02-03T18:13:07.388Z,7.04
2023-02-03T18:15:37.829Z,7.01
2023-02-03T18:18:06.542Z,6.96
2023-02-03T18:20:35.047Z,6.94
2023-02-03T18:23:06.157Z,6.90
2023-02-03T18:25:36.632Z,6.86
2023-02-03T18:28:05.353Z,6.80
2023-02-03T18:30:37.678Z,6.75
2023-02-03T18:33:06.079Z,6.72
2023-02-03T18:35:34.644Z,6.68
2023-02-03T18:38:03.015Z,6.65
2023-02-03T18:40:33.471Z,6.59
2023-02-03T18:43:02.358Z,6.53
2023-02-03T18:45:34.242Z,6.50
2023-02-03T18:48:03.926Z,6.47
2023-02-03T18:50:32.571Z,6.46
2023-02-03T18:53:01.094Z,6.42
2023-02-03T18:55:29.382Z,6.39
2023-02-03T18:57:57.865Z,6.38
2023-02-03T19:00:26.518Z,6.36
2023-02-03T19:02:55.478Z,6.37
2023-02-03T19:05:25.286Z,6.38
2023-02-03T19:07:53.609Z,6.37
2023-02-03T19:10:21.961Z,6.39
2023-02-03T19:12:50.350Z,6.40
2023-02-03T19:15:19.331Z,6.41
2023-02-03T19:17:49.280Z,6.43
2023-02-03T19:20:17.830Z,6.44
2023-02-03T19:22:47.585Z,6.47
2023-02-03T19:25:15.972Z,6.50
2023-02-03T19:27:44.386Z,6.52
2023-02-03T19:30:13.592Z,6.54
2023-02-03T19:32:43.334Z,6.52
2023-02-03T19:35:13.729Z,6.53
2023-02-03T19:37:42.499Z,6.53
2023-02-03T19:40:13.020Z,6.52
2023-02-03T19:42:42.957Z,6.51
2023-02-03T19:45:12.709Z,6.50
2023-02-03T19:47:41.308Z,6.47
2023-02-03T19:50:11.653Z,6.45
2023-02-03T19:52:47.137Z,6.45
2023-02-03T19:55:17.243Z,6.44
2023-02-03T19:57:45.598Z,6.44
2023-02-03T20:00:15.018Z,6.44
2023-02-03T20:02:44.536Z,6.41
2023-02-03T20:05:13.232Z,6.42
2023-02-03T20:07:41.657Z,6.42
2023-02-03T20:10:11.742Z,6.40
2023-02-03T20:12:41.724Z,6.40
2023-02-03T20:15:10.320Z,6.41
2023-02-03T20:17:38.694Z,6.40
2023-02-03T20:20:07.658Z,6.40
2023-02-03T20:22:36.174Z,6.42
2023-02-03T20:25:05.864Z,6.42
2023-02-03T20:27:34.277Z,6.43
2023-02-03T20:30:04.229Z,6.42
2023-02-03T20:32:32.539Z,6.44
2023-02-03T20:35:01.012Z,6.44
2023-02-03T20:37:29.348Z,6.42
2023-02-03T20:39:57.710Z,6.43
2023-02-03T20:42:26.171Z,6.41
2023-02-03T20:44:55.275Z,6.39
2023-02-03T20:47:25.068Z,6.40
2023-02-03T20:49:53.748Z,6.38
2023-02-03T20:52:22.493Z,6.36
2023-02-03T20:54:51.409Z,6.34
2023-02-03T20:57:20.640Z,6.34
2023-02-03T20:59:48.967Z,6.33
2023-02-03T21:02:22.880Z,6.32
2023-02-03T21:04:57.763Z,6.32
2023-02-03T21:07:29.919Z,6.29
2023-02-03T21:09:59.157Z,6.29
2023-02-03T21:12:29.226Z,6.30
2023-02-03T21:14:57.759Z,6.27
2023-02-03T21:17:27.724Z,6.26
2023-02-03T21:19:57.676Z,6.25
2023-02-03T21:22:30.184Z,6.25
2023-02-03T21:24:59.953Z,6.27
2023-02-03T21:27:30.582Z,6.24
2023-02-03T21:30:01.546Z,6.22
2023-02-03T21:32:37.880Z,6.21
2023-02-03T21:35:24.069Z,6.20
2023-02-03T21:37:56.030Z,6.19
2023-02-03T21:40:27.259Z,6.20
2023-02-03T21:42:56.050Z,6.21
2023-02-03T21:45:45.038Z,6.22
2023-02-03T21:48:36.770Z,6.23
2023-02-03T21:51:16.116Z,6.23
2023-02-03T21:53:57.495Z,6.21
2023-02-03T21:56:30.194Z,6.18
2023-02-03T21:58:59.864Z,6.18
2023-02-03T22:01:33.479Z,6.17
2023-02-03T22:04:03.885Z,6.17
2023-02-03T22:06:42.098Z,6.16
2023-02-03T22:09:12.922Z,6.15
2023-02-03T22:11:41.457Z,6.15
2023-02-03T22:14:09.828Z,6.17
2023-02-03T22:16:38.295Z,6.18
2023-02-03T22:19:06.720Z,6.15
2023-02-03T22:21:36.033Z,6.14
2023-02-03T22:24:06.744Z,6.14
2023-02-03T22:26:35.161Z,6.14
2023-02-03T22:29:03.573Z,6.14
2023-02-03T22:31:31.941Z,6.11
2023-02-03T22:34:00.397Z,6.08
2023-02-03T22:36:28.767Z,6.08
2023-02-03T22:39:02.045Z,6.08
2023-02-03T22:41:31.724Z,6.09
2023-02-03T22:44:00.077Z,6.09
2023-02-03T22:46:28.523Z,6.09
2023-02-03T22:48:57.089Z,6.08
2023-02-03T22:51:25.432Z,6.08
2023-02-03T22:53:53.809Z,6.09
2023-02-03T22:56:23.591Z,6.11
2023-02-03T22:58:53.389Z,6.13
2023-02-03T23:01:23.347Z,6.14
2023-02-03T23:03:52.101Z,6.14
2023-02-03T23:06:20.774Z,6.14
2023-02-03T23:08:49.096Z,6.14
2023-02-03T23:11:17.497Z,6.14
2023-02-03T23:13:46.253Z,6.13
2023-02-03T23:16:16.059Z,6.13
2023-02-03T23:18:44.424Z,6.10
2023-02-03T23:21:12.828Z,6.08
2023-02-03T23:23:41.380Z,6.06
2023-02-03T23:26:09.782Z,6.01
2023-02-03T23:28:38.147Z,5.98
2023-02-03T23:31:06.862Z,5.96
2023-02-03T23:33:36.556Z,5.92
2023-02-03T23:36:04.281Z,5.91
2023-02-03T23:38:33.417Z,5.87
2023-02-03T23:41:02.200Z,5.79
2023-02-03T23:43:30.512Z,5.72
2023-02-03T23:45:58.882Z,5.70
2023-02-03T23:48:27.221Z,5.67
2023-02-03T23:50:56.922Z,5.64
2023-02-03T23:53:25.277Z,5.60
2023-02-03T23:55:53.719Z,5.59
2023-02-03T23:58:22.146Z,5.57
